Time;durP1;ratioP1;P1;durP2;ratioP2;P2;SDS_P1;SDS_P2;PMS_P1;PMS_P2;Temp;Humidity;BMP_temperature;BMP_pressure;BME280_temperature;BME280_humidity;BME280_pressure;Samples;Min_cycle;Max_cycle;Signal;HPM_P1;HPM_P2
2023/01/09 00:01:42;;;;;;;8.18;3.05;;;9.10;99.90;;;;;;5078088;28;20059;-77
2023/01/09 00:04:08;;;;;;;6.47;3.10;;;9.20;99.90;;;;;;5071386;28;20115;-77
2023/01/09 00:06:35;;;;;;;9.63;3.10;;;9.10;99.90;;;;;;5078026;28;21384;-77
2023/01/09 00:09:02;;;;;;;6.82;3.47;;;9.10;99.90;;;;;;5058064;28;20029;-77
2023/01/09 00:11:28;;;;;;;4.85;3.28;;;9.10;99.90;;;;;;5078960;28;20024;-77
2023/01/09 00:13:54;;;;;;;6.20;3.08;;;9.10;99.90;;;;;;5074044;28;20028;-78
2023/01/09 00:16:20;;;;;;;4.65;2.97;;;9.10;99.90;;;;;;5061072;28;20020;-79
2023/01/09 00:18:46;;;;;;;5.90;3.00;;;9.10;99.90;;;;;;5058079;28;20029;-78
2023/01/09 00:21:13;;;;;;;6.47;2.58;;;9.10;99.90;;;;;;5056025;28;20019;-79
2023/01/09 00:23:39;;;;;;;9.32;2.70;;;9.10;99.90;;;;;;5056307;28;20032;-77
2023/01/09 00:26:07;;;;;;;5.22;2.80;;;9.10;99.90;;;;;;5055539;28;20037;-79
2023/01/09 00:28:33;;;;;;;6.70;3.25;;;9.10;99.90;;;;;;5052248;28;20489;-79
2023/01/09 00:31:01;;;;;;;4.88;2.63;;;9.20;99.90;;;;;;5088243;28;20378;-82
2023/01/09 00:33:33;;;;;;;2.97;2.40;;;9.20;99.90;;;;;;5053898;28;20025;-77
2023/01/09 00:35:59;;;;;;;7.68;2.80;;;9.10;99.90;;;;;;5057232;28;20021;-79
2023/01/09 00:38:25;;;;;;;6.63;2.80;;;9.20;99.90;;;;;;5052360;28;20522;-78
2023/01/09 00:40:51;;;;;;;6.88;3.45;;;9.20;99.90;;;;;;5058038;28;20024;-79
2023/01/09 00:43:19;;;;;;;6.78;3.00;;;9.20;99.90;;;;;;5055919;28;20036;-78
2023/01/09 00:45:45;;;;;;;3.42;2.67;;;9.20;99.90;;;;;;5056980;28;20029;-78
2023/01/09 00:48:13;;;;;;;4.00;2.50;;;9.20;99.90;;;;;;5049454;28;20116;-78
2023/01/09 00:50:39;;;;;;;4.78;2.50;;;9.20;99.90;;;;;;5058232;28;20021;-77
2023/01/09 00:53:12;;;;;;;5.72;2.83;;;9.20;99.90;;;;;;5050581;28;20018;-78
2023/01/09 00:55:39;;;;;;;6.82;2.53;;;9.20;99.90;;;;;;5049322;28;20032;-78
2023/01/09 00:58:05;;;;;;;3.33;2.65;;;9.20;99.90;;;;;;5047178;28;20037;-79
2023/01/09 01:00:32;;;;;;;4.25;2.75;;;9.20;99.90;;;;;;5058199;28;20032;-78
2023/01/09 01:02:57;;;;;;;4.78;2.40;;;9.20;99.90;;;;;;5081481;28;20088;-77
2023/01/09 01:08:16;;;;;;;6.43;2.50;;;9.20;99.90;;;;;;5047255;28;20040;-77
2023/01/09 01:10:43;;;;;;;4.85;2.53;;;9.20;99.90;;;;;;5056310;28;20404;-78
2023/01/09 01:13:10;;;;;;;5.75;2.78;;;9.20;99.90;;;;;;5085604;28;20053;-78
2023/01/09 01:15:41;;;;;;;12.65;2.40;;;9.20;99.90;;;;;;5057093;28;20021;-78
2023/01/09 01:18:07;;;;;;;6.53;3.40;;;9.20;99.90;;;;;;5050872;28;20036;-78
2023/01/09 01:20:33;;;;;;;7.50;2.85;;;9.30;99.90;;;;;;5052366;28;20025;-78
2023/01/09 01:22:59;;;;;;;14.35;4.07;;;9.30;99.90;;;;;;5055425;28;20039;-78
2023/01/09 01:25:25;;;;;;;8.45;3.08;;;9.30;99.90;;;;;;5051611;28;20508;-78
2023/01/09 01:27:51;;;;;;;6.38;3.38;;;9.30;99.90;;;;;;5056552;28;20028;-78
2023/01/09 01:30:17;;;;;;;8.38;2.65;;;9.30;99.90;;;;;;5054405;28;20086;-78
2023/01/09 01:32:44;;;;;;;12.32;3.38;;;9.30;99.90;;;;;;5053410;28;20061;-79
2023/01/09 01:35:10;;;;;;;5.03;2.80;;;9.30;99.90;;;;;;5055356;28;20021;-78
2023/01/09 01:37:37;;;;;;;7.80;3.03;;;9.30;99.90;;;;;;5058951;28;20028;-78
2023/01/09 01:40:05;;;;;;;9.50;2.80;;;9.30;99.90;;;;;;5056230;28;20083;-78
2023/01/09 01:42:31;;;;;;;9.18;2.65;;;9.30;99.90;;;;;;5055498;28;20051;-78
2023/01/09 01:45:11;;;;;;;10.15;3.40;;;9.30;99.90;;;;;;5054467;28;20096;-77
2023/01/09 01:47:58;;;;;;;4.78;2.90;;;9.20;99.90;;;;;;5054443;28;20398;-77
2023/01/09 01:50:52;;;;;;;9.95;3.33;;;9.20;99.90;;;;;;5053221;28;20017;-78
2023/01/09 01:53:28;;;;;;;10.95;3.15;;;9.20;99.90;;;;;;5046482;28;20375;-77
2023/01/09 01:56:05;;;;;;;13.98;4.43;;;9.20;99.90;;;;;;5050735;28;20043;-77
2023/01/09 01:58:35;;;;;;;8.52;3.50;;;9.20;99.90;;;;;;5053651;28;20124;-77
2023/01/09 02:01:01;;;;;;;14.63;3.80;;;9.20;99.90;;;;;;5056584;28;20385;-80
2023/01/09 02:03:28;;;;;;;10.27;3.63;;;9.20;99.90;;;;;;5054852;28;20587;-79
2023/01/09 02:05:54;;;;;;;7.22;3.50;;;9.20;99.90;;;;;;5055622;28;20029;-77
2023/01/09 02:08:21;;;;;;;7.65;3.08;;;9.20;99.90;;;;;;5054782;28;20036;-78
2023/01/09 02:10:49;;;;;;;7.43;3.40;;;9.20;99.90;;;;;;5056720;28;20485;-77
2023/01/09 02:13:15;;;;;;;17.23;3.67;;;9.20;99.90;;;;;;5052665;28;20053;-77
2023/01/09 02:15:44;;;;;;;10.10;3.45;;;9.20;99.90;;;;;;5056605;28;20056;-78
2023/01/09 02:18:27;;;;;;;9.32;5.10;;;9.10;99.90;;;;;;5050291;28;20033;-81
2023/01/09 02:21:15;;;;;;;12.15;3.70;;;9.10;99.90;;;;;;5051087;28;20020;-77
2023/01/09 02:23:46;;;;;;;13.23;3.92;;;9.10;99.90;;;;;;5050763;28;20093;-79
2023/01/09 02:26:22;;;;;;;7.28;3.30;;;9.10;99.90;;;;;;5074191;28;20025;-78
2023/01/09 02:29:26;;;;;;;14.60;3.63;;;9.10;99.90;;;;;;5069408;28;20020;-77
2023/01/09 02:32:01;;;;;;;9.40;3.35;;;9.10;99.90;;;;;;5070498;28;20068;-77
2023/01/09 02:35:09;;;;;;;9.88;3.30;;;9.10;99.90;;;;;;5057149;28;20024;-77
2023/01/09 02:37:50;;;;;;;11.38;3.22;;;9.10;99.90;;;;;;5072207;28;20028;-77
2023/01/09 02:40:16;;;;;;;6.00;3.35;;;9.10;99.90;;;;;;5056971;28;20078;-79
2023/01/09 02:42:44;;;;;;;12.65;4.43;;;9.10;99.90;;;;;;5061098;28;20033;-77
2023/01/09 02:45:10;;;;;;;7.03;3.33;;;9.10;99.90;;;;;;5083377;28;20097;-78
2023/01/09 02:47:40;;;;;;;8.38;3.88;;;9.20;99.90;;;;;;5070211;28;20033;-77
2023/01/09 02:50:14;;;;;;;10.02;4.13;;;9.20;99.90;;;;;;5075748;28;20389;-77
2023/01/09 02:52:40;;;;;;;9.90;3.38;;;9.20;99.90;;;;;;5072863;28;20039;-78
2023/01/09 02:55:29;;;;;;;8.20;3.50;;;9.10;99.90;;;;;;5076162;28;20107;-77
2023/01/09 02:58:12;;;;;;;12.23;3.20;;;9.20;99.90;;;;;;5053756;28;20040;-77
2023/01/09 03:01:10;;;;;;;24.13;6.60;;;9.20;99.90;;;;;;5068482;28;20488;-77
2023/01/09 03:03:52;;;;;;;10.40;3.40;;;9.20;99.90;;;;;;5039583;28;20407;-80
2023/01/09 03:06:56;;;;;;;12.45;4.90;;;9.20;99.90;;;;;;5057005;28;20031;-81
2023/01/09 03:09:26;;;;;;;9.40;3.88;;;9.20;99.90;;;;;;5072706;28;20020;-79
2023/01/09 03:11:58;;;;;;;16.40;5.13;;;9.20;99.90;;;;;;5058060;28;20033;-79
2023/01/09 03:14:25;;;;;;;9.30;3.22;;;9.20;99.90;;;;;;5060361;28;20025;-80
2023/01/09 03:16:59;;;;;;;11.32;4.18;;;9.20;99.90;;;;;;5077974;28;20480;-79
2023/01/09 03:19:29;;;;;;;9.10;3.40;;;9.20;99.90;;;;;;5059708;28;20025;-77
2023/01/09 03:21:56;;;;;;;10.35;4.45;;;9.10;99.90;;;;;;5077649;28;20036;-77
2023/01/09 03:24:22;;;;;;;8.27;4.22;;;9.10;99.90;;;;;;5077803;28;20158;-77
2023/01/09 03:26:48;;;;;;;8.20;3.47;;;9.10;99.90;;;;;;5059140;28;20021;-77
2023/01/09 03:29:13;;;;;;;9.98;3.35;;;9.10;99.90;;;;;;5073400;28;20099;-78
2023/01/09 03:31:39;;;;;;;9.07;2.95;;;9.10;99.90;;;;;;5077767;28;20431;-79
2023/01/09 03:34:05;;;;;;;8.40;3.30;;;9.00;99.90;;;;;;5072555;28;20079;-77
2023/01/09 03:36:31;;;;;;;10.63;3.35;;;9.00;99.90;;;;;;5060712;28;20016;-79
2023/01/09 03:38:57;;;;;;;9.70;3.63;;;9.00;99.90;;;;;;5072690;28;20017;-78
2023/01/09 03:41:23;;;;;;;12.85;5.40;;;9.00;99.90;;;;;;5060792;28;20021;-77
2023/01/09 03:43:48;;;;;;;11.43;4.10;;;9.00;99.90;;;;;;5072221;28;20043;-78
2023/01/09 03:46:16;;;;;;;4.13;3.13;;;9.00;99.90;;;;;;5078461;28;20017;-79
2023/01/09 03:48:42;;;;;;;16.25;3.75;;;9.00;99.90;;;;;;5059372;28;20508;-80
2023/01/09 03:51:08;;;;;;;11.25;3.88;;;8.90;99.90;;;;;;5077553;28;20526;-79
2023/01/09 03:53:34;;;;;;;11.10;4.00;;;9.00;99.90;;;;;;5074104;28;20066;-79
2023/01/09 03:56:00;;;;;;;10.82;3.65;;;9.00;99.90;;;;;;5059944;28;20048;-79
2023/01/09 03:58:26;;;;;;;17.55;5.18;;;9.00;99.90;;;;;;5073946;28;20059;-77
2023/01/09 04:00:58;;;;;;;13.43;4.18;;;9.00;99.90;;;;;;5059864;28;20519;-78
2023/01/09 04:03:23;;;;;;;7.75;3.67;;;9.00;99.90;;;;;;5072772;28;20031;-78
2023/01/09 04:05:49;;;;;;;10.27;3.38;;;9.00;99.90;;;;;;5059515;28;20492;-78
2023/01/09 04:08:16;;;;;;;15.65;4.45;;;8.90;99.90;;;;;;5059872;28;20029;-77
2023/01/09 04:10:49;;;;;;;9.38;4.03;;;8.90;99.90;;;;;;5071780;28;20021;-77
2023/01/09 04:13:15;;;;;;;15.05;3.45;;;8.90;99.90;;;;;;5073470;28;20437;-77
2023/01/09 04:15:41;;;;;;;11.13;5.90;;;8.80;99.90;;;;;;5075448;28;20134;-81
2023/01/09 04:18:07;;;;;;;10.13;3.40;;;8.80;99.90;;;;;;5072437;28;20028;-79
2023/01/09 04:20:33;;;;;;;10.48;3.75;;;8.80;99.90;;;;;;5074346;28;20416;-78
2023/01/09 04:22:59;;;;;;;11.68;3.97;;;8.80;99.90;;;;;;5073630;28;20029;-79
2023/01/09 04:25:25;;;;;;;14.13;4.30;;;8.70;99.90;;;;;;5058922;28;20572;-78
2023/01/09 04:27:52;;;;;;;10.32;3.28;;;8.70;99.90;;;;;;5072566;28;20536;-78
2023/01/09 04:30:18;;;;;;;13.48;3.65;;;8.60;99.90;;;;;;5058326;28;20032;-79
2023/01/09 04:32:44;;;;;;;10.48;4.18;;;8.70;99.90;;;;;;5075024;28;20068;-80
2023/01/09 04:35:10;;;;;;;15.05;4.00;;;8.80;99.90;;;;;;5072988;28;20468;-81
2023/01/09 04:37:36;;;;;;;11.35;4.63;;;8.80;99.90;;;;;;5076191;28;20024;-79
2023/01/09 04:40:10;;;;;;;11.13;3.92;;;8.80;99.90;;;;;;5060109;28;20055;-81
2023/01/09 04:42:36;;;;;;;24.17;4.35;;;8.80;99.90;;;;;;5072306;28;20036;-77
2023/01/09 04:45:03;;;;;;;12.07;4.25;;;8.90;99.90;;;;;;5060449;28;20056;-78
2023/01/09 04:47:30;;;;;;;12.65;3.60;;;8.80;99.90;;;;;;5050682;28;20043;-77
2023/01/09 04:49:56;;;;;;;15.20;4.60;;;8.70;99.90;;;;;;5060256;28;21208;-78
2023/01/09 04:52:22;;;;;;;12.13;3.20;;;8.70;99.90;;;;;;5058061;28;20021;-78
2023/01/09 04:54:48;;;;;;;17.35;4.35;;;8.60;99.90;;;;;;5072328;28;20027;-78
2023/01/09 04:57:13;;;;;;;19.33;10.63;;;8.60;99.90;;;;;;5057271;28;20404;-78
2023/01/09 04:59:39;;;;;;;14.57;4.10;;;8.40;99.90;;;;;;5073430;28;20025;-79
2023/01/09 05:02:05;;;;;;;12.35;3.83;;;8.40;99.90;;;;;;5075766;28;20023;-79
2023/01/09 05:04:31;;;;;;;15.70;8.48;;;8.40;99.90;;;;;;5056777;28;20024;-80
2023/01/09 05:06:57;;;;;;;15.70;3.80;;;8.40;99.90;;;;;;5075742;28;20029;-79
2023/01/09 05:09:22;;;;;;;14.43;4.22;;;8.40;99.90;;;;;;5069230;28;20610;-77
2023/01/09 05:11:49;;;;;;;11.77;3.85;;;8.40;99.90;;;;;;5075040;28;20017;-78
2023/01/09 05:14:15;;;;;;;15.10;5.10;;;8.40;99.90;;;;;;5068483;28;20025;-78
2023/01/09 05:16:41;;;;;;;20.48;6.22;;;8.40;99.90;;;;;;5076155;28;20020;-81
2023/01/09 05:19:07;;;;;;;16.27;3.58;;;8.20;99.90;;;;;;5056442;28;20028;-78
2023/01/09 05:21:32;;;;;;;18.42;4.75;;;8.10;99.90;;;;;;5076607;28;20027;-80
2023/01/09 05:23:58;;;;;;;10.90;3.20;;;7.90;99.90;;;;;;5057126;28;20028;-78
2023/01/09 05:26:24;;;;;;;11.00;3.50;;;7.80;99.90;;;;;;5076367;28;20017;-78
2023/01/09 05:28:55;;;;;;;11.90;3.90;;;7.70;99.90;;;;;;5068073;28;20027;-77
2023/01/09 05:31:21;;;;;;;8.32;3.33;;;7.50;99.90;;;;;;5077288;28;20055;-78
2023/01/09 05:33:47;;;;;;;10.82;4.00;;;7.40;99.90;;;;;;5073357;28;20024;-79
2023/01/09 05:36:13;;;;;;;9.88;3.33;;;7.30;99.90;;;;;;5069354;28;20028;-78
2023/01/09 05:38:39;;;;;;;8.13;3.33;;;7.20;99.90;;;;;;5055189;28;20031;-78
2023/01/09 05:41:06;;;;;;;12.73;3.70;;;7.10;99.90;;;;;;5076846;28;20024;-78
2023/01/09 05:43:32;;;;;;;9.05;3.60;;;7.00;99.90;;;;;;5055008;28;20037;-80
2023/01/09 05:45:58;;;;;;;9.18;3.83;;;7.00;99.90;;;;;;5077068;28;20055;-79
2023/01/09 05:48:24;;;;;;;13.40;4.00;;;7.10;99.90;;;;;;5059596;28;20024;-78
2023/01/09 05:50:50;;;;;;;12.98;4.03;;;7.20;99.90;;;;;;5077371;28;20024;-80
2023/01/09 05:53:16;;;;;;;9.93;4.28;;;7.30;99.90;;;;;;5069031;28;20167;-79
2023/01/09 05:55:41;;;;;;;15.15;5.32;;;7.30;99.90;;;;;;5089358;28;20056;-80
2023/01/09 05:58:07;;;;;;;16.42;3.92;;;7.30;99.90;;;;;;5069569;28;20180;-81
2023/01/09 06:00:33;;;;;;;8.73;4.70;;;7.40;99.90;;;;;;5076518;28;20024;-80
2023/01/09 06:02:59;;;;;;;13.23;4.35;;;7.50;99.90;;;;;;5079131;28;20048;-80
2023/01/09 06:05:25;;;;;;;16.95;4.15;;;7.60;99.90;;;;;;5069455;28;20027;-80
2023/01/09 06:07:51;;;;;;;13.60;4.20;;;7.60;99.90;;;;;;5070167;28;20017;-81
2023/01/09 06:10:17;;;;;;;9.05;4.10;;;7.60;99.90;;;;;;5070752;28;20503;-78
2023/01/09 06:12:47;;;;;;;16.88;4.10;;;7.60;99.90;;;;;;5051906;28;20035;-79
2023/01/09 06:15:14;;;;;;;11.07;3.72;;;7.70;99.90;;;;;;5051120;28;20029;-80
2023/01/09 06:17:40;;;;;;;9.25;3.88;;;7.70;99.90;;;;;;5053352;28;20036;-79
2023/01/09 06:20:07;;;;;;;8.90;3.80;;;7.70;99.90;;;;;;5076708;28;20113;-79
2023/01/09 06:22:33;;;;;;;16.98;6.38;;;7.70;99.90;;;;;;5072461;28;20386;-80
2023/01/09 06:24:59;;;;;;;11.45;3.80;;;7.80;99.90;;;;;;5052655;28;20055;-78
2023/01/09 06:27:25;;;;;;;16.88;3.92;;;7.80;99.90;;;;;;5053290;28;20405;-80
2023/01/09 06:29:50;;;;;;;12.02;3.78;;;7.80;99.90;;;;;;5055677;28;20061;-78
2023/01/09 06:32:16;;;;;;;9.82;3.97;;;7.80;99.90;;;;;;5050168;28;20025;-81
2023/01/09 06:34:42;;;;;;;17.10;4.82;;;7.80;99.90;;;;;;5055192;28;20021;-82
2023/01/09 06:37:08;;;;;;;8.82;3.72;;;7.70;99.90;;;;;;5052888;28;20083;-80
2023/01/09 06:39:34;;;;;;;16.65;4.28;;;7.70;99.90;;;;;;5056256;28;20021;-79
2023/01/09 06:42:00;;;;;;;6.97;3.25;;;7.70;99.90;;;;;;5054220;28;20033;-80
2023/01/09 06:44:26;;;;;;;14.20;4.88;;;7.70;99.90;;;;;;5054996;28;20029;-84
2023/01/09 06:46:52;;;;;;;9.82;4.40;;;7.80;99.90;;;;;;5056464;28;20071;-79
2023/01/09 06:49:22;;;;;;;9.05;5.30;;;7.80;99.90;;;;;;5054137;28;20028;-80
2023/01/09 06:51:49;;;;;;;6.70;3.67;;;7.80;99.90;;;;;;5055110;28;20044;-80
2023/01/09 06:54:19;;;;;;;10.80;4.35;;;7.80;99.90;;;;;;5058433;28;20519;-79
2023/01/09 06:56:45;;;;;;;9.95;4.00;;;7.80;99.90;;;;;;5058983;28;20044;-79
2023/01/09 06:59:11;;;;;;;14.60;4.47;;;7.80;99.90;;;;;;5054602;28;20029;-79
2023/01/09 07:01:41;;;;;;;17.58;4.45;;;7.80;99.90;;;;;;5058666;28;20497;-77
2023/01/09 07:04:11;;;;;;;12.52;4.22;;;7.80;99.90;;;;;;5051338;28;20033;-79
2023/01/09 07:06:37;;;;;;;11.32;3.78;;;7.80;99.90;;;;;;5059862;28;20151;-78
2023/01/09 07:09:04;;;;;;;15.75;4.72;;;7.70;99.90;;;;;;5067440;28;20037;-77
2023/01/09 07:11:31;;;;;;;9.95;4.95;;;7.80;99.90;;;;;;5056425;28;20017;-78
2023/01/09 07:13:56;;;;;;;11.52;3.88;;;7.80;99.90;;;;;;5055098;28;20108;-78
2023/01/09 07:16:22;;;;;;;9.73;5.05;;;7.80;99.90;;;;;;5060285;28;20044;-78
2023/01/09 07:18:48;;;;;;;14.75;4.32;;;7.80;99.90;;;;;;5057085;28;20578;-79
2023/01/09 07:21:14;;;;;;;16.92;4.00;;;7.80;99.90;;;;;;5056576;28;20017;-77
2023/01/09 07:23:40;;;;;;;13.77;4.50;;;7.90;99.90;;;;;;5055116;28;20033;-78
2023/01/09 07:26:05;;;;;;;9.43;4.70;;;7.90;99.90;;;;;;5076635;28;20100;-78
2023/01/09 07:28:31;;;;;;;14.38;4.32;;;7.90;99.90;;;;;;5076007;28;20485;-79
2023/01/09 07:31:01;;;;;;;12.38;4.10;;;7.90;99.90;;;;;;5061738;28;20116;-77
2023/01/09 07:33:27;;;;;;;11.30;3.50;;;7.90;99.90;;;;;;5056283;28;20028;-78
2023/01/09 07:35:53;;;;;;;7.07;3.42;;;8.00;99.90;;;;;;5076574;28;20036;-77
2023/01/09 07:38:19;;;;;;;11.68;3.28;;;8.10;99.90;;;;;;5070053;28;20535;-81
2023/01/09 07:40:44;;;;;;;6.60;2.95;;;8.10;99.90;;;;;;5076867;28;20088;-79
2023/01/09 07:43:10;;;;;;;5.90;4.18;;;8.10;99.90;;;;;;5073192;28;20029;-80
2023/01/09 07:45:36;;;;;;;4.03;2.80;;;8.10;99.90;;;;;;5089893;28;20031;-80
2023/01/09 07:48:02;;;;;;;9.02;3.42;;;8.10;99.90;;;;;;5055678;28;20021;-81
2023/01/09 07:50:28;;;;;;;5.70;3.05;;;8.10;99.90;;;;;;5079223;28;20024;-78
2023/01/09 07:52:53;;;;;;;7.55;4.07;;;8.10;99.90;;;;;;5074085;28;20024;-78
2023/01/09 07:55:19;;;;;;;8.05;3.13;;;8.10;99.90;;;;;;5091448;28;20031;-79
2023/01/09 07:57:49;;;;;;;3.92;2.70;;;8.10;99.90;;;;;;5073710;28;20446;-78
2023/01/09 08:00:15;;;;;;;11.57;2.88;;;8.10;99.90;;;;;;5075197;28;20465;-78
2023/01/09 08:02:41;;;;;;;7.10;3.63;;;8.00;99.90;;;;;;5075104;28;20056;-79
2023/01/09 08:05:12;;;;;;;9.23;3.30;;;8.00;99.90;;;;;;5074692;28;20051;-78
2023/01/09 08:07:38;;;;;;;5.93;4.00;;;7.90;99.90;;;;;;5058659;28;20032;-78
2023/01/09 08:10:04;;;;;;;4.20;2.92;;;7.90;99.90;;;;;;5071760;28;20032;-79
2023/01/09 08:12:30;;;;;;;4.45;3.47;;;7.90;99.90;;;;;;5075969;28;20024;-79
2023/01/09 08:14:56;;;;;;;8.68;3.65;;;7.90;99.90;;;;;;5078925;28;20419;-78
2023/01/09 08:17:21;;;;;;;14.57;4.03;;;8.00;99.90;;;;;;5074944;28;20025;-78
2023/01/09 08:19:47;;;;;;;8.98;2.90;;;8.00;99.90;;;;;;5073748;28;20071;-78
2023/01/09 08:22:13;;;;;;;13.75;3.70;;;8.00;99.90;;;;;;5076193;28;20047;-78
2023/01/09 08:24:39;;;;;;;11.50;3.67;;;8.00;99.90;;;;;;5077178;28;20041;-79
2023/01/09 08:27:05;;;;;;;6.50;3.35;;;8.00;99.90;;;;;;5066539;28;20514;-79
2023/01/09 08:29:30;;;;;;;7.47;3.38;;;8.10;99.90;;;;;;5075436;28;20103;-79
2023/01/09 08:31:56;;;;;;;9.43;3.78;;;8.10;99.90;;;;;;5057215;28;20158;-79
2023/01/09 08:34:22;;;;;;;7.90;3.10;;;8.20;99.90;;;;;;5076126;28;20016;-80
2023/01/09 08:36:48;;;;;;;8.40;3.47;;;8.20;99.90;;;;;;5059275;28;20024;-79
2023/01/09 08:39:14;;;;;;;8.70;4.15;;;8.30;99.90;;;;;;5069699;28;20063;-79
2023/01/09 08:47:08;;;;;;;11.23;4.30;;;8.30;99.90;;;;;;5076979;28;20035;-79
2023/01/09 08:49:36;;;;;;;12.93;4.00;;;8.30;99.90;;;;;;5071894;28;20020;-80
2023/01/09 08:52:04;;;;;;;12.35;4.07;;;8.30;99.90;;;;;;5075739;28;20056;-79
2023/01/09 08:54:30;;;;;;;8.30;3.42;;;8.30;99.90;;;;;;5053570;28;20523;-80
2023/01/09 08:56:56;;;;;;;14.23;3.80;;;8.30;99.90;;;;;;5073677;28;20021;-81
2023/01/09 08:59:22;;;;;;;8.68;4.38;;;8.40;99.90;;;;;;5047964;28;20029;-79
2023/01/09 09:01:48;;;;;;;15.57;4.10;;;8.50;99.90;;;;;;5072702;28;20016;-78
2023/01/09 09:04:14;;;;;;;9.02;3.13;;;8.60;99.90;;;;;;5073560;28;20033;-79
2023/01/09 09:06:39;;;;;;;7.07;3.40;;;8.70;99.90;;;;;;5076730;28;20012;-80
2023/01/09 09:09:06;;;;;;;9.88;3.22;;;8.90;99.90;;;;;;5072973;28;20059;-79
2023/01/09 09:11:33;;;;;;;9.50;3.17;;;9.00;99.90;;;;;;5076247;28;20024;-78
2023/01/09 09:13:59;;;;;;;8.65;3.13;;;9.00;99.90;;;;;;5072535;28;20093;-79
2023/01/09 09:16:25;;;;;;;11.88;3.65;;;9.20;99.90;;;;;;5080280;28;20028;-78
2023/01/09 09:18:52;;;;;;;11.02;4.00;;;9.20;99.90;;;;;;5054759;28;20089;-80
2023/01/09 09:21:19;;;;;;;7.80;3.33;;;9.10;99.90;;;;;;5062764;28;20059;-78
2023/01/09 09:23:45;;;;;;;9.48;3.63;;;9.10;99.90;;;;;;5073303;28;20040;-80
2023/01/09 09:26:11;;;;;;;7.72;3.75;;;8.90;99.90;;;;;;5061364;28;20036;-80
2023/01/09 09:28:38;;;;;;;14.88;3.88;;;8.90;99.90;;;;;;5076016;28;20028;-82
2023/01/09 09:31:05;;;;;;;7.25;3.17;;;8.70;99.90;;;;;;5076183;28;20099;-78
2023/01/09 09:33:31;;;;;;;6.43;3.33;;;8.40;99.90;;;;;;5073132;28;20024;-80
2023/01/09 09:36:00;;;;;;;9.88;3.53;;;8.20;99.90;;;;;;5059518;28;20024;-77
2023/01/09 09:38:27;;;;;;;7.60;3.28;;;7.90;99.90;;;;;;5056354;28;20028;-78
2023/01/09 09:44:42;;;;;;;8.50;2.80;;;7.70;99.90;;;;;;5074301;28;20038;-77
2023/01/09 09:47:27;;;;;;;9.02;3.10;;;7.80;99.90;;;;;;5057786;28;20551;-78
2023/01/09 09:50:14;;;;;;;11.40;3.72;;;7.80;99.90;;;;;;5085492;28;20032;-77
2023/01/09 09:53:02;;;;;;;8.45;3.28;;;7.90;99.90;;;;;;5075334;28;20056;-77
2023/01/09 09:55:39;;;;;;;10.13;3.13;;;7.90;99.90;;;;;;5077219;28;20025;-78
2023/01/09 09:58:41;;;;;;;3.85;3.45;;;8.00;99.90;;;;;;5071642;28;20036;-77
2023/01/09 10:01:09;;;;;;;5.60;3.13;;;8.00;99.90;;;;;;5069257;28;20408;-77
2023/01/09 10:03:44;;;;;;;8.43;3.22;;;8.00;99.90;;;;;;5073549;28;20024;-77
2023/01/09 10:06:30;;;;;;;8.82;2.97;;;8.10;99.90;;;;;;5073876;28;20024;-77
2023/01/09 10:09:12;;;;;;;6.47;3.25;;;8.20;99.90;;;;;;5069965;28;20111;-78
2023/01/09 10:11:55;;;;;;;6.22;3.38;;;8.30;99.90;;;;;;5077606;28;20019;-77
2023/01/09 10:14:22;;;;;;;6.47;3.05;;;8.40;99.90;;;;;;5071760;28;20033;-78
2023/01/09 10:17:22;;;;;;;8.60;3.13;;;8.50;99.90;;;;;;5059993;28;20021;-78
2023/01/09 10:20:17;;;;;;;9.13;2.88;;;8.60;99.90;;;;;;5055580;28;20095;-78
2023/01/09 10:23:08;;;;;;;6.22;3.28;;;8.60;99.90;;;;;;5073284;28;20020;-78
2023/01/09 10:25:54;;;;;;;;;;;8.50;99.90;;;;;;5074866;28;20408;-77
2023/01/09 10:28:29;;;;;;;3.97;2.78;;;8.40;99.90;;;;;;5046523;28;19979;-77
2023/01/09 10:31:04;;;;;;;9.38;2.95;;;8.20;99.90;;;;;;5074397;28;20024;-78
2023/01/09 10:33:46;;;;;;;8.38;3.10;;;8.10;99.90;;;;;;5071572;28;20040;-80
2023/01/09 10:49:13;;;;;;;10.38;2.88;;;7.80;99.90;;;;;;5206997;22;20056;-75
2023/01/09 10:52:17;;;;;;;4.20;3.65;;;7.80;99.90;;;;;;5082710;28;20047;-74
2023/01/09 10:55:04;;;;;;;7.95;3.25;;;7.80;99.90;;;;;;5081295;28;20027;-75
2023/01/09 10:57:38;;;;;;;9.10;3.53;;;7.80;99.90;;;;;;5067424;28;20047;-75
2023/01/09 11:00:05;;;;;;;9.07;3.45;;;7.90;99.90;;;;;;5081927;28;20035;-75
2023/01/09 11:02:34;;;;;;;8.32;3.72;;;7.90;99.90;;;;;;5068639;28;20028;-76
2023/01/09 11:05:00;;;;;;;8.57;3.65;;;7.90;99.90;;;;;;5081393;28;20111;-75
2023/01/09 11:07:36;;;;;;;11.98;4.18;;;8.00;99.90;;;;;;5071735;28;20037;-75
2023/01/09 11:10:13;;;;;;;114.85;38.75;;;8.10;99.90;;;;;;5080802;28;20098;-74
2023/01/09 11:12:39;;;;;;;7.05;3.30;;;8.20;99.90;;;;;;5085013;28;20127;-75
2023/01/09 11:15:27;;;;;;;3.42;2.65;;;8.30;99.90;;;;;;5068383;28;20035;-76
2023/01/09 11:17:57;;;;;;;8.70;2.88;;;8.40;99.90;;;;;;5069802;28;20020;-76
2023/01/09 11:20:28;;;;;;;7.82;3.22;;;8.30;99.90;;;;;;5068266;28;20455;-77
2023/01/09 11:22:56;;;;;;;5.95;3.63;;;8.20;99.90;;;;;;5068910;28;20522;-75
2023/01/09 11:25:27;;;;;;;3.40;2.47;;;8.20;99.90;;;;;;5087816;28;20032;-76
2023/01/09 11:28:05;;;;;;;4.43;2.60;;;8.20;99.90;;;;;;5085448;28;20100;-76
2023/01/09 11:30:35;;;;;;;6.97;2.70;;;8.20;99.90;;;;;;5087060;28;20028;-76
2023/01/09 11:33:14;;;;;;;7.47;2.80;;;8.20;99.90;;;;;;5089964;28;20526;-76
2023/01/09 11:35:54;;;;;;;3.53;2.83;;;8.20;99.90;;;;;;5085987;28;20148;-77
2023/01/09 11:38:20;;;;;;;7.25;2.80;;;8.30;99.90;;;;;;5088883;28;20024;-75
2023/01/09 11:40:52;;;;;;;5.88;3.47;;;8.40;99.90;;;;;;5086233;28;20039;-76
2023/01/09 11:43:29;;;;;;;4.28;2.53;;;8.40;99.90;;;;;;5092915;28;20673;-77
2023/01/09 11:45:56;;;;;;;3.55;2.13;;;8.40;99.90;;;;;;5083907;28;20032;-75
2023/01/09 11:48:32;;;;;;;4.50;2.47;;;8.40;99.90;;;;;;5071024;28;20046;-77
2023/01/09 11:51:01;;;;;;;5.03;3.60;;;8.50;99.90;;;;;;5073583;28;20036;-78
2023/01/09 11:53:27;;;;;;;7.18;2.72;;;8.40;99.90;;;;;;5090658;28;20102;-75
2023/01/09 11:56:01;;;;;;;4.53;2.45;;;8.30;99.90;;;;;;5089009;28;20032;-77
2023/01/09 11:58:31;;;;;;;4.68;2.80;;;8.10;99.90;;;;;;5092516;28;20092;-75
2023/01/09 12:01:00;;;;;;;5.85;2.30;;;7.90;99.90;;;;;;5095988;28;20060;-76
2023/01/09 12:03:52;;;;;;;11.18;3.17;;;7.70;99.90;;;;;;5092452;28;20395;-77
2023/01/09 12:06:53;;;;;;;8.50;2.75;;;7.60;99.90;;;;;;5090614;28;20551;-77
2023/01/09 12:09:28;;;;;;;4.05;2.60;;;7.50;99.90;;;;;;5072638;28;20024;-78
2023/01/09 12:12:14;;;;;;;5.80;2.92;;;7.50;99.90;;;;;;5084542;28;20026;-76
2023/01/09 12:15:01;;;;;;;9.50;3.58;;;7.50;99.90;;;;;;5073170;28;20380;-77
2023/01/09 12:17:43;;;;;;;10.88;4.03;;;7.50;99.90;;;;;;5084724;28;20019;-74
2023/01/09 12:20:15;;;;;;;7.78;3.30;;;7.40;99.90;;;;;;5078336;28;20043;-75
2023/01/09 12:22:52;;;;;;;5.32;2.80;;;7.10;99.90;;;;;;5072993;28;20023;-76
2023/01/09 12:25:39;;;;;;;2.92;2.70;;;6.70;99.90;;;;;;5081609;28;20051;-76
2023/01/09 12:28:31;;;;;;;3.97;3.42;;;6.60;99.90;;;;;;5074709;28;20399;-80
2023/01/09 12:31:16;;;;;;;5.35;3.35;;;6.50;99.90;;;;;;5076405;28;20028;-78
2023/01/09 12:34:07;;;;;;;5.43;2.70;;;6.40;99.90;;;;;;5089913;28;20021;-79
2023/01/09 12:36:42;;;;;;;;;;;6.40;99.90;;;;;;5070605;28;20127;-78
2023/01/09 12:39:53;;;;;;;12.35;6.45;;;6.40;99.90;;;;;;5095573;28;19908;-79
2023/01/09 12:42:40;;;;;;;4.38;2.95;;;6.50;99.90;;;;;;5070348;28;20111;-79
2023/01/09 12:45:57;;;;;;;8.00;4.55;;;6.60;99.90;;;;;;5070805;28;20047;-79
2023/01/09 12:48:42;;;;;;;6.18;3.88;;;6.70;99.90;;;;;;5044629;28;20036;-79
2023/01/09 12:51:16;;;;;;;3.42;3.10;;;6.90;99.90;;;;;;5067771;28;20041;-78
2023/01/09 12:53:45;;;;;;;3.63;3.33;;;7.00;99.90;;;;;;5073498;28;20088;-79
2023/01/09 12:56:14;;;;;;;3.88;2.72;;;7.10;99.90;;;;;;5075693;28;20101;-79
2023/01/09 12:58:47;;;;;;;5.47;3.40;;;7.20;99.90;;;;;;5064937;28;20025;-78
2023/01/09 13:01:28;;;;;;;8.32;3.33;;;7.30;99.90;;;;;;5063623;28;20035;-79
2023/01/09 13:04:03;;;;;;;3.45;3.08;;;7.30;99.90;;;;;;5067912;28;20043;-79
2023/01/09 13:06:32;;;;;;;3.58;3.17;;;7.30;99.90;;;;;;5076182;28;20039;-77
2023/01/09 13:09:10;;;;;;;7.32;3.00;;;7.30;99.90;;;;;;5076097;28;20039;-80
2023/01/09 13:12:14;;;;;;;3.95;3.55;;;7.40;99.90;;;;;;5070941;28;20108;-79
2023/01/09 13:15:02;;;;;;;5.57;3.83;;;7.50;99.90;;;;;;5046057;28;20033;-80
2023/01/09 13:18:18;;;;;;;5.70;3.65;;;7.60;99.90;;;;;;5063790;28;20029;-79
2023/01/09 13:20:54;;;;;;;4.80;2.85;;;7.70;99.90;;;;;;5029952;28;20028;-77
2023/01/09 13:24:00;;;;;;;9.27;3.22;;;7.70;99.90;;;;;;5070489;28;20032;-79
2023/01/09 13:26:49;;;;;;;6.20;3.35;;;7.90;99.90;;;;;;5068747;28;20021;-80
2023/01/09 13:29:17;;;;;;;6.53;3.67;;;8.00;99.90;;;;;;5072016;28;20033;-78
2023/01/09 13:32:08;;;;;;;7.88;3.55;;;8.20;99.90;;;;;;5067596;28;20058;-77
2023/01/09 13:34:36;;;;;;;12.07;3.95;;;8.40;99.90;;;;;;5070884;28;20037;-76
2023/01/09 13:37:02;;;;;;;6.28;3.45;;;8.60;99.90;;;;;;5076071;28;20035;-79
2023/01/09 13:39:37;;;;;;;7.75;3.58;;;8.70;99.90;;;;;;5049516;28;20028;-78